Atlantida Azul — CSYG2 — position and weather

sailwx.info

Track history (hours):
 
Tides and Currents Weather Stations Pressure Air Temp Water Temp Dewpoint Dewpoint Depression Visibility Wind Speed Wind Dir Waves Ship Positions

Atlantida Azul

Last reported at 2015-Mar-31 10:32 UTC. Time now 2015-Mar-31 11:21 UTC.
Position N 37°56' W 008°51'.

Length 16 m.

Type: Pilot. MMSI: 263672880.

Date/timePositionNaut miles runAvg speedWind from/ knotsBaromVisibWave heightAir tempDewpointWater temp
2015-Mar-31 10:32N 37°56' W 008°51'2 1.5
2015-Mar-31 09:31N 37°57' W 008°52'2 0.3
2015-Mar-31 03:33N 37°56' W 008°51'1 0.4
2015-Mar-31 00:33N 37°57' W 008°52'1 1.2
2015-Mar-30 23:33N 37°57' W 008°53'3 2.6
2015-Mar-30 22:32N 37°55' W 008°51'1 0.2
2015-Mar-30 16:12N 37°56' W 008°51'0 0.0
2015-Mar-30 15:31N 37°56' W 008°51'0 0.0
2015-Mar-30 13:16N 37°56' W 008°51'0 0.0
2015-Mar-30 07:05N 37°56' W 008°51'0 0.0
2015-Mar-30 04:09N 37°56' W 008°51'0 0.7
2015-Mar-30 03:32N 37°56' W 008°51'1 0.5
2015-Mar-30 02:31N 37°57' W 008°52'1 1.2
2015-Mar-30 01:31N 37°57' W 008°53'2 2.3
2015-Mar-30 00:33N 37°56' W 008°51'0 0.0
2015-Mar-29 12:05N 37°56' W 008°51'0 0.0
2015-Mar-29 11:33N 37°56' W 008°51'1 0.1
2015-Mar-29 00:33N 37°55' W 008°51'1 1.0
2015-Mar-28 23:32N 37°56' W 008°51'1 1.5
2015-Mar-28 22:33N 37°57' W 008°53'2 2.0
2015-Mar-28 21:32N 37°56' W 008°51'3 0.2
2015-Mar-28 06:33N 37°54' W 008°54'2 1.5
2015-Mar-28 05:33N 37°55' W 008°53'1 1.1
2015-Mar-28 04:33N 37°55' W 008°51'1 0.1
2015-Mar-27 17:32N 37°56' W 008°53'1 1.3
2015-Mar-27 16:33N 37°56' W 008°51'0 0.1
2015-Mar-27 15:06N 37°56' W 008°51'2 3.2
2015-Mar-27 14:33N 37°57' W 008°53'2 2.0
2015-Mar-27 13:31N 37°56' W 008°51'0 0.2
2015-Mar-27 11:20N 37°56' W 008°51'0 0.0
2015-Mar-27 10:33N 37°56' W 008°51'0 0.0
2015-Mar-27 08:06N 37°56' W 008°51'0 0.0
2015-Mar-27 07:31N 37°56' W 008°51'2 2.0
2015-Mar-27 06:31N 37°57' W 008°53'0 0.0
2015-Mar-27 05:31N 37°57' W 008°53'2 0.5
2015-Mar-27 00:33N 37°56' W 008°51'1 0.9
2015-Mar-26 23:33N 37°55' W 008°51'2 2.5
2015-Mar-26 22:33N 37°57' W 008°53'2 0.3
2015-Mar-26 15:32N 37°56' W 008°51'2 0.3
2015-Mar-26 09:33N 37°54' W 008°51'2 1.7
2015-Mar-26 08:31N 37°56' W 008°51'0 0.0
2015-Mar-24 17:16N 37°56' W 008°51'0 0.0
2015-Mar-24 16:32N 37°56' W 008°51'0 0.0
2015-Mar-24 02:31N 37°56' W 008°51'0 0.0
2015-Mar-23 19:33N 37°56' W 008°51'0 0.1
2015-Mar-23 18:22N 37°56' W 008°51'0 0.0
2015-Mar-22 20:33N 37°56' W 008°51'  
Track history (hours):
 
Tides and Currents Weather Stations Pressure Air Temp Water Temp Dewpoint Dewpoint Depression Visibility Wind Speed Wind Dir Waves Ship Positions

Atlantida Azul

Last reported at 2015-Mar-31 10:32 UTC. Time now 2015-Mar-31 11:21 UTC.
Position N 37°56' W 008°51'.

Length 16 m.

Type: Pilot. MMSI: 263672880.

Date/timePositionNaut miles runAvg speedWind from/ knotsBaromVisibWave heightAir tempDewpointWater temp
2015-Mar-31 10:32N 37°56' W 008°51'2 1.5
2015-Mar-31 09:31N 37°57' W 008°52'2 0.3
2015-Mar-31 03:33N 37°56' W 008°51'1 0.4
2015-Mar-31 00:33N 37°57' W 008°52'1 1.2
2015-Mar-30 23:33N 37°57' W 008°53'3 2.6
2015-Mar-30 22:32N 37°55' W 008°51'1 0.2
2015-Mar-30 16:12N 37°56' W 008°51'0 0.0
2015-Mar-30 15:31N 37°56' W 008°51'0 0.0
2015-Mar-30 13:16N 37°56' W 008°51'0 0.0
2015-Mar-30 07:05N 37°56' W 008°51'0 0.0
2015-Mar-30 04:09N 37°56' W 008°51'0 0.7
2015-Mar-30 03:32N 37°56' W 008°51'1 0.5
2015-Mar-30 02:31N 37°57' W 008°52'1 1.2
2015-Mar-30 01:31N 37°57' W 008°53'2 2.3
2015-Mar-30 00:33N 37°56' W 008°51'0 0.0
2015-Mar-29 12:05N 37°56' W 008°51'0 0.0
2015-Mar-29 11:33N 37°56' W 008°51'1 0.1
2015-Mar-29 00:33N 37°55' W 008°51'1 1.0
2015-Mar-28 23:32N 37°56' W 008°51'1 1.5
2015-Mar-28 22:33N 37°57' W 008°53'2 2.0
2015-Mar-28 21:32N 37°56' W 008°51'3 0.2
2015-Mar-28 06:33N 37°54' W 008°54'2 1.5
2015-Mar-28 05:33N 37°55' W 008°53'1 1.1
2015-Mar-28 04:33N 37°55' W 008°51'1 0.1
2015-Mar-27 17:32N 37°56' W 008°53'1 1.3
2015-Mar-27 16:33N 37°56' W 008°51'0 0.1
2015-Mar-27 15:06N 37°56' W 008°51'2 3.2
2015-Mar-27 14:33N 37°57' W 008°53'2 2.0
2015-Mar-27 13:31N 37°56' W 008°51'0 0.2
2015-Mar-27 11:20N 37°56' W 008°51'0 0.0
2015-Mar-27 10:33N 37°56' W 008°51'0 0.0
2015-Mar-27 08:06N 37°56' W 008°51'0 0.0
2015-Mar-27 07:31N 37°56' W 008°51'2 2.0
2015-Mar-27 06:31N 37°57' W 008°53'0 0.0
2015-Mar-27 05:31N 37°57' W 008°53'2 0.5
2015-Mar-27 00:33N 37°56' W 008°51'1 0.9
2015-Mar-26 23:33N 37°55' W 008°51'2 2.5
2015-Mar-26 22:33N 37°57' W 008°53'2 0.3
2015-Mar-26 15:32N 37°56' W 008°51'2 0.3
2015-Mar-26 09:33N 37°54' W 008°51'2 1.7
2015-Mar-26 08:31N 37°56' W 008°51'0 0.0
2015-Mar-24 17:16N 37°56' W 008°51'0 0.0
2015-Mar-24 16:32N 37°56' W 008°51'0 0.0
2015-Mar-24 02:31N 37°56' W 008°51'0 0.0
2015-Mar-23 19:33N 37°56' W 008°51'0 0.1
2015-Mar-23 18:22N 37°56' W 008°51'0 0.0
2015-Mar-22 20:33N 37°56' W 008°51'  

Dump ship's entire track history